createdAt,value
2022-10-18T05:09:29.067Z,100.00
2022-10-18T05:11:56.836Z,100.00
2022-10-18T05:14:24.931Z,100.00
2022-10-18T05:16:53.010Z,100.00
2022-10-18T05:19:21.086Z,100.00
2022-10-18T05:21:49.417Z,100.00
2022-10-18T05:24:17.475Z,100.00
2022-10-18T05:26:49.990Z,100.00
2022-10-18T05:29:17.828Z,100.00
2022-10-18T05:31:45.873Z,100.00
2022-10-18T05:34:13.705Z,100.00
2022-10-18T05:36:41.602Z,100.00
2022-10-18T05:39:09.583Z,100.00
2022-10-18T05:41:37.767Z,100.00
2022-10-18T05:44:07.456Z,100.00
2022-10-18T05:46:35.482Z,100.00
2022-10-18T05:49:03.710Z,100.00
2022-10-18T05:51:31.825Z,100.00
2022-10-18T05:54:00.807Z,100.00
2022-10-18T05:56:28.877Z,100.00
2022-10-18T05:58:56.951Z,100.00
2022-10-18T06:01:26.545Z,100.00
2022-10-18T06:03:54.720Z,100.00
2022-10-18T06:06:22.739Z,100.00
2022-10-18T06:08:51.332Z,100.00
2022-10-18T06:11:21.182Z,100.00
2022-10-18T06:13:51.454Z,100.00
2022-10-18T06:16:21.569Z,100.00
2022-10-18T06:18:52.583Z,100.00
2022-10-18T06:21:21.769Z,100.00
2022-10-18T06:23:50.511Z,100.00
2022-10-18T06:26:18.662Z,100.00
2022-10-18T06:28:46.934Z,100.00
2022-10-18T06:31:15.341Z,100.00
2022-10-18T06:33:43.559Z,100.00
2022-10-18T06:36:15.200Z,100.00
2022-10-18T06:38:43.566Z,100.00
2022-10-18T06:41:12.027Z,100.00
2022-10-18T06:43:40.229Z,100.00
2022-10-18T06:46:09.334Z,100.00
2022-10-18T06:48:37.884Z,100.00
2022-10-18T06:51:08.046Z,100.00
2022-10-18T06:53:44.121Z,100.00
2022-10-18T06:56:16.785Z,100.00
2022-10-18T06:58:44.815Z,100.00
2022-10-18T07:01:15.806Z,100.00
2022-10-18T07:03:44.488Z,100.00
2022-10-18T07:06:14.665Z,100.00
2022-10-18T07:08:44.819Z,100.00
2022-10-18T07:11:17.005Z,100.00
2022-10-18T07:13:45.082Z,100.00
2022-10-18T07:16:17.417Z,100.00
2022-10-18T07:18:48.301Z,100.00
2022-10-18T07:21:18.498Z,100.00
2022-10-18T07:23:48.262Z,100.00
2022-10-18T07:26:18.398Z,100.00
2022-10-18T07:28:48.080Z,100.00
2022-10-18T07:31:16.507Z,100.00
2022-10-18T07:33:44.591Z,100.00
2022-10-18T07:36:14.577Z,100.00
2022-10-18T07:38:44.758Z,100.00
2022-10-18T07:41:15.065Z,100.00
2022-10-18T07:43:44.471Z,100.00
2022-10-18T07:46:13.346Z,100.00
2022-10-18T07:48:41.550Z,100.00
2022-10-18T07:51:10.264Z,100.00
2022-10-18T07:53:39.320Z,100.00
2022-10-18T07:56:09.765Z,100.00
2022-10-18T07:58:39.254Z,100.00
2022-10-18T08:01:09.414Z,100.00
2022-10-18T08:03:38.606Z,100.00
2022-10-18T08:06:09.274Z,100.00
2022-10-18T08:08:38.383Z,100.00
2022-10-18T08:11:08.968Z,100.00
2022-10-18T08:13:36.981Z,100.00
2022-10-18T08:16:08.150Z,100.00
2022-10-18T08:18:37.035Z,100.00
2022-10-18T08:21:07.022Z,100.00
2022-10-18T08:23:35.448Z,100.00
2022-10-18T08:26:06.906Z,99.88
2022-10-18T08:28:36.793Z,97.78
2022-10-18T08:31:08.486Z,95.44
2022-10-18T08:33:36.967Z,86.33
2022-10-18T08:36:07.073Z,87.84
2022-10-18T08:38:36.000Z,85.23
2022-10-18T08:41:24.279Z,87.69
2022-10-18T08:44:01.114Z,87.71
2022-10-18T08:46:33.773Z,95.55
2022-10-18T08:49:03.758Z,98.98
2022-10-18T08:51:38.983Z,99.56
2022-10-18T08:54:12.079Z,97.14
2022-10-18T08:56:42.687Z,96.18
2022-10-18T08:59:12.416Z,96.50
2022-10-18T09:04:36.626Z,94.04
2022-10-18T09:07:29.406Z,99.82
2022-10-18T09:10:05.079Z,100.00
2022-10-18T09:12:52.826Z,100.00
2022-10-18T09:15:28.673Z,100.00
2022-10-18T09:18:12.218Z,100.00
2022-10-18T09:20:51.664Z,100.00
2022-10-18T09:23:23.048Z,100.00
2022-10-18T09:25:57.078Z,100.00
2022-10-18T09:28:37.273Z,98.90
2022-10-18T09:31:16.416Z,100.00
2022-10-18T09:33:53.474Z,100.00
2022-10-18T09:36:24.466Z,100.00
2022-10-18T09:38:57.200Z,100.00
2022-10-18T09:41:33.089Z,100.00
2022-10-18T09:44:06.778Z,100.00
2022-10-18T09:46:40.039Z,100.00
2022-10-18T09:49:16.505Z,100.00
2022-10-18T09:51:46.141Z,100.00
2022-10-18T09:54:21.997Z,100.00
2022-10-18T09:56:52.074Z,100.00
2022-10-18T09:59:35.590Z,100.00
2022-10-18T10:02:04.260Z,100.00
2022-10-18T10:04:33.757Z,100.00
2022-10-18T10:07:03.358Z,100.00
2022-10-18T10:09:37.252Z,95.81
2022-10-18T10:12:05.623Z,90.20
2022-10-18T10:14:44.702Z,83.83
2022-10-18T10:17:24.595Z,74.97
2022-10-18T10:20:02.203Z,67.22
2022-10-18T10:22:37.151Z,68.85
2022-10-18T10:25:06.710Z,67.88
2022-10-18T10:27:43.374Z,70.02
2022-10-18T10:30:25.822Z,71.98
2022-10-18T10:32:55.816Z,67.64
2022-10-18T10:35:53.420Z,79.96
2022-10-18T10:38:27.023Z,81.35
2022-10-18T10:40:55.163Z,75.39
2022-10-18T10:43:42.625Z,80.80
2022-10-18T10:46:13.017Z,86.94
2022-10-18T10:48:48.398Z,90.99
2022-10-18T10:51:29.058Z,89.21
2022-10-18T10:54:02.729Z,88.83
2022-10-18T10:56:32.733Z,83.68
2022-10-18T10:59:09.508Z,85.38
2022-10-18T11:01:37.424Z,87.98
2022-10-18T11:04:25.473Z,92.01
2022-10-18T11:07:01.852Z,96.45
2022-10-18T11:09:51.273Z,96.07
2022-10-18T11:12:27.972Z,95.96
2022-10-18T11:15:05.682Z,97.92
2022-10-18T11:17:40.522Z,97.55
2022-10-18T11:20:23.066Z,99.24
2022-10-18T11:22:59.953Z,99.91
2022-10-18T11:25:40.226Z,100.00
2022-10-18T11:28:17.333Z,99.30
2022-10-18T11:30:55.451Z,97.02
2022-10-18T11:33:56.212Z,88.62
2022-10-18T11:36:27.812Z,87.84
2022-10-18T11:39:01.966Z,87.46
2022-10-18T11:41:34.000Z,84.77
2022-10-18T11:44:04.146Z,78.61
2022-10-18T11:46:48.236Z,84.92
2022-10-18T11:49:40.484Z,76.13
2022-10-18T11:52:14.774Z,71.53
2022-10-18T11:54:59.488Z,69.38
2022-10-18T11:57:41.878Z,74.29
2022-10-18T12:00:20.362Z,77.52
2022-10-18T12:03:00.609Z,75.23
2022-10-18T12:05:30.656Z,76.72
2022-10-18T12:08:03.836Z,78.70
2022-10-18T12:10:52.830Z,76.52
2022-10-18T12:13:28.723Z,74.47
2022-10-18T12:15:57.026Z,74.22
2022-10-18T12:18:26.797Z,73.02
2022-10-18T12:20:56.893Z,66.72
2022-10-18T12:23:37.620Z,69.13
2022-10-18T12:26:08.704Z,67.18
2022-10-18T12:28:48.326Z,63.18
2022-10-18T12:31:23.168Z,58.94
2022-10-18T12:33:55.603Z,55.51
2022-10-18T12:36:47.013Z,47.22
2022-10-18T12:39:32.279Z,47.15
2022-10-18T12:42:19.811Z,48.91
2022-10-18T12:44:48.618Z,64.69
2022-10-18T12:47:27.070Z,63.56
2022-10-18T12:50:00.648Z,59.76
2022-10-18T12:52:33.678Z,63.12
2022-10-18T12:55:05.403Z,66.21
2022-10-18T12:58:06.452Z,72.22
2022-10-18T13:00:55.610Z,74.91
2022-10-18T13:03:53.035Z,74.84
2022-10-18T13:06:21.998Z,74.77
2022-10-18T13:09:10.191Z,71.63
2022-10-18T13:11:37.970Z,75.69
2022-10-18T13:14:44.218Z,73.13
2022-10-18T13:17:32.875Z,55.98
2022-10-18T13:20:26.778Z,57.34
2022-10-18T13:23:05.727Z,61.31
2022-10-18T13:25:46.283Z,55.34
2022-10-18T13:28:26.246Z,60.92
2022-10-18T13:31:03.204Z,70.48
2022-10-18T13:33:34.664Z,70.40
2022-10-18T13:36:06.150Z,71.67
2022-10-18T13:38:39.992Z,74.55
2022-10-18T13:41:09.882Z,74.17
2022-10-18T13:44:12.336Z,77.60
2022-10-18T13:47:19.722Z,79.74
2022-10-18T13:50:04.233Z,85.00
2022-10-18T13:52:50.126Z,84.90
2022-10-18T13:55:39.895Z,85.87
2022-10-18T13:58:18.499Z,86.88
2022-10-18T14:01:08.116Z,82.86
2022-10-18T14:03:57.639Z,82.12
2022-10-18T14:06:30.005Z,81.31
2022-10-18T14:09:09.618Z,80.52
2022-10-18T14:11:51.243Z,83.04
2022-10-18T14:14:26.520Z,84.34
2022-10-18T14:17:04.820Z,84.69
2022-10-18T14:19:37.458Z,84.00
2022-10-18T14:22:14.894Z,82.28
2022-10-18T14:24:46.499Z,81.04
2022-10-18T14:27:18.684Z,80.28
2022-10-18T14:29:46.978Z,78.97
2022-10-18T14:32:30.775Z,75.90
2022-10-18T14:35:27.242Z,76.87
2022-10-18T14:37:50.351Z,76.94
2022-10-18T14:40:34.979Z,79.25
2022-10-18T14:43:04.965Z,81.11
2022-10-18T14:45:32.836Z,83.52
2022-10-18T14:48:08.869Z,85.07
2022-10-18T14:50:36.707Z,90.68
2022-10-18T14:53:14.461Z,93.37
2022-10-18T14:55:44.103Z,95.43
2022-10-18T14:58:16.627Z,92.18
2022-10-18T15:00:47.731Z,90.94
2022-10-18T15:03:18.897Z,87.99
2022-10-18T15:05:54.816Z,84.87
2022-10-18T15:08:25.761Z,83.33
2022-10-18T15:10:54.866Z,84.44
2022-10-18T15:15:51.222Z,81.84
2022-10-18T15:18:22.729Z,80.85
2022-10-18T15:21:21.302Z,80.21
2022-10-18T15:23:51.451Z,78.24
2022-10-18T15:26:23.732Z,78.86
2022-10-18T15:28:54.013Z,81.08
2022-10-18T15:31:26.473Z,82.97
2022-10-18T15:33:56.136Z,83.21
2022-10-18T15:36:29.832Z,82.94
2022-10-18T15:39:15.282Z,83.37
2022-10-18T15:41:48.883Z,84.28
2022-10-18T15:44:25.364Z,84.62
2022-10-18T15:46:55.739Z,84.31
2022-10-18T15:49:54.602Z,84.54
2022-10-18T15:52:42.460Z,84.32
2022-10-18T15:55:50.008Z,85.17
2022-10-18T15:58:26.632Z,85.04
2022-10-18T16:00:57.466Z,85.51
2022-10-18T16:03:25.814Z,85.61
2022-10-18T16:06:03.908Z,85.47
2022-10-18T16:08:37.233Z,85.52
2022-10-18T16:11:07.252Z,86.28
2022-10-18T16:13:35.302Z,86.64
2022-10-18T16:16:03.403Z,86.15
2022-10-18T16:18:31.317Z,85.92
2022-10-18T16:20:59.193Z,86.08
2022-10-18T16:23:28.595Z,86.18
2022-10-18T16:25:56.831Z,86.81
2022-10-18T16:28:27.088Z,87.68
2022-10-18T16:30:57.442Z,88.50
2022-10-18T16:33:25.619Z,89.05
2022-10-18T16:35:54.198Z,90.12
2022-10-18T16:38:32.601Z,90.76
2022-10-18T16:41:04.081Z,91.36
2022-10-18T16:43:34.611Z,92.58
2022-10-18T16:46:03.805Z,93.71
2022-10-18T16:48:32.062Z,93.66
2022-10-18T16:51:00.429Z,93.80
2022-10-18T16:53:28.808Z,93.97
2022-10-18T16:56:00.731Z,94.62
2022-10-18T16:58:30.021Z,94.97
2022-10-18T17:01:01.826Z,95.42
2022-10-18T17:03:31.906Z,96.10
2022-10-18T17:05:59.835Z,96.74
2022-10-18T17:08:29.186Z,97.21
2022-10-18T17:10:58.634Z,97.34
2022-10-18T17:13:27.515Z,97.26
2022-10-18T17:40:23.986Z,95.10
2022-10-18T19:22:30.508Z,100.00
2022-10-18T19:24:58.469Z,100.00
2022-10-18T19:27:26.378Z,100.00
2022-10-18T19:29:54.613Z,100.00
2022-10-18T19:32:22.675Z,100.00
2022-10-18T19:34:51.025Z,100.00
2022-10-18T19:37:19.906Z,100.00
2022-10-18T19:39:52.596Z,100.00
2022-10-18T19:42:26.071Z,100.00
2022-10-18T19:44:55.870Z,100.00
2022-10-18T19:47:24.389Z,100.00
2022-10-18T19:55:38.871Z,100.00
2022-10-18T19:58:07.649Z,100.00
2022-10-18T20:00:36.320Z,100.00
2022-10-18T20:03:04.899Z,100.00
2022-10-18T20:05:32.941Z,100.00
2022-10-18T20:08:03.875Z,100.00
2022-10-18T20:10:31.982Z,100.00
2022-10-18T20:13:05.176Z,100.00
2022-10-18T20:15:35.369Z,100.00
2022-10-18T20:18:03.495Z,100.00
2022-10-18T20:20:31.403Z,100.00
2022-10-18T20:22:59.310Z,100.00
2022-10-18T20:25:27.266Z,100.00
2022-10-18T20:27:55.293Z,100.00
2022-10-18T20:30:24.705Z,100.00
2022-10-18T20:32:52.860Z,100.00
2022-10-18T20:35:20.937Z,100.00
2022-10-18T20:37:49.042Z,100.00
2022-10-18T20:40:18.235Z,100.00
2022-10-18T20:42:46.213Z,100.00
2022-10-18T20:45:14.045Z,100.00
2022-10-18T20:47:43.367Z,100.00
2022-10-18T20:50:11.360Z,100.00
2022-10-18T20:52:39.228Z,100.00
2022-10-18T20:55:07.513Z,100.00
2022-10-18T20:57:36.660Z,100.00
2022-10-18T21:00:07.579Z,100.00
2022-10-18T21:05:50.539Z,100.00
2022-10-18T21:08:18.419Z,100.00
2022-10-18T21:10:46.344Z,100.00
2022-10-18T21:13:14.276Z,100.00
2022-10-18T21:15:43.769Z,100.00
2022-10-18T21:18:11.908Z,100.00
2022-10-18T21:20:42.010Z,100.00
2022-10-18T21:23:11.665Z,100.00
2022-10-18T21:25:45.341Z,100.00
2022-10-18T21:28:13.254Z,100.00
2022-10-18T21:30:41.091Z,100.00
2022-10-18T21:33:09.135Z,100.00
2022-10-18T21:35:37.370Z,100.00
2022-10-18T21:38:05.982Z,100.00
2022-10-18T21:40:39.703Z,100.00
2022-10-18T21:43:08.135Z,100.00
2022-10-18T21:45:36.035Z,100.00
2022-10-18T21:48:04.084Z,100.00
2022-10-18T21:50:32.070Z,100.00
2022-10-18T21:52:59.960Z,100.00
2022-10-18T21:55:27.770Z,100.00
2022-10-18T21:57:57.071Z,100.00
2022-10-18T22:00:25.069Z,100.00
2022-10-18T22:03:07.132Z,100.00
2022-10-18T22:05:35.110Z,100.00
2022-10-18T22:08:03.089Z,100.00
2022-10-18T22:10:31.270Z,100.00
2022-10-18T22:13:01.448Z,100.00
2022-10-18T22:15:29.297Z,100.00
2022-10-18T22:17:57.323Z,100.00
2022-10-18T22:20:25.063Z,100.00
2022-10-18T22:22:55.747Z,100.00
2022-10-18T22:25:23.653Z,100.00
2022-10-18T22:27:51.629Z,100.00
2022-10-18T22:30:21.085Z,100.00
2022-10-18T22:32:49.308Z,100.00
2022-10-18T22:35:17.247Z,100.00
2022-10-18T22:37:45.358Z,100.00
2022-10-18T22:40:13.490Z,100.00
2022-10-18T22:42:41.478Z,100.00
2022-10-18T22:45:10.921Z,100.00
2022-10-18T22:47:40.201Z,100.00
2022-10-18T22:50:08.681Z,100.00
2022-10-18T22:52:36.749Z,100.00
2022-10-18T22:55:05.127Z,100.00
2022-10-18T22:57:33.292Z,100.00
2022-10-18T23:00:01.286Z,100.00
2022-10-18T23:02:29.494Z,100.00
2022-10-18T23:04:58.734Z,100.00
2022-10-18T23:07:26.665Z,100.00
2022-10-18T23:09:54.611Z,100.00
2022-10-18T23:12:22.926Z,100.00
2022-10-18T23:14:51.304Z,100.00
2022-10-18T23:17:19.512Z,100.00
2022-10-18T23:19:47.760Z,100.00
2022-10-18T23:22:21.376Z,100.00
2022-10-18T23:24:49.527Z,100.00
2022-10-18T23:27:17.851Z,100.00
2022-10-18T23:29:46.598Z,100.00
2022-10-18T23:32:14.881Z,100.00
2022-10-18T23:34:43.143Z,100.00
2022-10-18T23:37:11.318Z,100.00
2022-10-18T23:39:41.464Z,100.00
2022-10-18T23:42:11.103Z,100.00
2022-10-18T23:44:39.070Z,100.00
2022-10-18T23:47:07.033Z,100.00
2022-10-18T23:49:35.114Z,100.00
2022-10-18T23:52:03.394Z,100.00
2022-10-18T23:54:31.190Z,100.00
2022-10-18T23:57:00.517Z,100.00
2022-10-18T23:59:28.601Z,100.00
